Time;durP1;ratioP1;P1;durP2;ratioP2;P2;SDS_P1;SDS_P2;PMS_P1;PMS_P2;Temp;Humidity;BMP_temperature;BMP_pressure;BME280_temperature;BME280_humidity;BME280_pressure;Samples;Min_cycle;Max_cycle;Signal;HPM_P1;HPM_P2
2021/01/18 00:01:45;;;;;;;7.25;3.85;;;;;;;;;;5067319;28;20028;-48
2021/01/18 00:04:11;;;;;;;9.90;4.15;;;;;;;;;;5067309;28;20039;-49
2021/01/18 00:06:38;;;;;;;11.85;4.45;;;;;;;;;;5067294;28;20029;-48
2021/01/18 00:09:04;;;;;;;11.85;4.13;;;;;;;;;;5067453;28;20406;-49
2021/01/18 00:11:30;;;;;;;9.02;4.03;;;;;;;;;;5067701;28;20498;-49
2021/01/18 00:13:56;;;;;;;10.00;3.83;;;;;;;;;;5067478;28;20029;-50
2021/01/18 00:16:23;;;;;;;5.78;3.35;;;;;;;;;;5067187;28;20085;-49
2021/01/18 00:18:49;;;;;;;6.07;2.60;;;;;;;;;;5066906;28;20032;-49
2021/01/18 00:21:16;;;;;;;6.40;2.75;;;;;;;;;;5067005;28;20571;-48
2021/01/18 00:23:43;;;;;;;6.72;3.03;;;;;;;;;;5066659;28;20040;-48
2021/01/18 00:26:09;;;;;;;7.93;2.90;;;;;;;;;;5067040;28;20036;-49
2021/01/18 00:28:36;;;;;;;6.85;3.10;;;;;;;;;;5066664;28;20082;-48
2021/01/18 00:31:03;;;;;;;6.30;3.05;;;;;;;;;;5067500;28;20111;-48
2021/01/18 00:33:29;;;;;;;6.82;3.60;;;;;;;;;;5067295;28;20078;-49
2021/01/18 00:35:56;;;;;;;8.60;3.72;;;;;;;;;;5066149;28;20413;-49
2021/01/18 00:38:22;;;;;;;7.68;3.53;;;;;;;;;;5066988;28;20043;-49
2021/01/18 00:40:49;;;;;;;9.85;4.43;;;;;;;;;;5066980;28;20047;-49
2021/01/18 00:43:16;;;;;;;6.32;3.60;;;;;;;;;;5066816;28;20032;-49
2021/01/18 00:45:42;;;;;;;6.18;3.53;;;;;;;;;;5065414;28;20149;-51
2021/01/18 00:48:08;;;;;;;5.82;3.50;;;;;;;;;;5066517;28;20063;-48
2021/01/18 00:50:34;;;;;;;7.80;3.17;;;;;;;;;;5048138;28;20059;-48
2021/01/18 00:53:01;;;;;;;5.57;3.40;;;;;;;;;;5067488;28;20051;-49
2021/01/18 00:55:28;;;;;;;7.68;3.33;;;;;;;;;;5066689;28;20048;-49
2021/01/18 00:57:55;;;;;;;7.15;3.08;;;;;;;;;;5066686;28;20074;-48
2021/01/18 01:00:22;;;;;;;4.68;3.25;;;;;;;;;;5066447;28;20028;-50
2021/01/18 01:02:49;;;;;;;6.10;3.35;;;;;;;;;;5066087;28;20060;-48
2021/01/18 01:05:17;;;;;;;6.60;2.83;;;;;;;;;;5066374;28;20516;-48
2021/01/18 01:07:45;;;;;;;5.72;3.10;;;;;;;;;;5066019;28;20046;-48
2021/01/18 01:10:14;;;;;;;8.13;3.08;;;;;;;;;;5066202;28;20016;-48
2021/01/18 01:12:40;;;;;;;9.65;3.40;;;;;;;;;;5065768;28;20563;-50
2021/01/18 01:15:08;;;;;;;7.30;4.00;;;;;;;;;;5066096;28;20498;-50
2021/01/18 01:17:39;;;;;;;10.27;4.18;;;;;;;;;;5065813;28;20036;-48
2021/01/18 01:20:05;;;;;;;5.57;3.60;;;;;;;;;;5065982;28;20525;-49
2021/01/18 01:22:32;;;;;;;9.85;4.10;;;;;;;;;;5066607;28;20099;-51
2021/01/18 01:24:59;;;;;;;8.38;4.18;;;;;;;;;;5066625;28;20033;-48
2021/01/18 01:27:26;;;;;;;9.15;4.25;;;;;;;;;;5065947;28;20033;-50
2021/01/18 01:29:52;;;;;;;8.95;4.75;;;;;;;;;;5065362;28;20514;-49
2021/01/18 01:32:19;;;;;;;12.98;4.65;;;;;;;;;;5065816;28;20056;-48
2021/01/18 01:34:45;;;;;;;10.60;4.88;;;;;;;;;;5064837;28;20040;-48
2021/01/18 01:37:11;;;;;;;10.73;5.57;;;;;;;;;;5065701;28;20021;-49
2021/01/18 01:39:37;;;;;;;8.52;4.28;;;;;;;;;;5065100;28;20036;-49
2021/01/18 01:42:03;;;;;;;7.80;3.70;;;;;;;;;;5065599;28;20024;-52
2021/01/18 01:44:29;;;;;;;6.43;3.13;;;;;;;;;;5066370;28;20025;-48
2021/01/18 01:47:02;;;;;;;8.18;3.78;;;;;;;;;;5065473;28;20513;-48
2021/01/18 01:49:28;;;;;;;6.65;3.60;;;;;;;;;;5065405;28;20646;-48
2021/01/18 01:51:55;;;;;;;6.45;3.90;;;;;;;;;;5065333;28;20078;-50
2021/01/18 01:54:21;;;;;;;4.45;2.80;;;;;;;;;;5065341;28;20514;-48
2021/01/18 01:56:47;;;;;;;5.70;2.80;;;;;;;;;;5065322;28;20145;-48
2021/01/18 01:59:14;;;;;;;5.75;2.88;;;;;;;;;;5065340;28;20125;-48
2021/01/18 02:01:40;;;;;;;4.20;2.67;;;;;;;;;;5064874;28;20028;-49
2021/01/18 02:04:06;;;;;;;4.93;2.30;;;;;;;;;;5065310;28;20024;-49
2021/01/18 02:06:32;;;;;;;4.10;2.45;;;;;;;;;;5065581;28;20140;-48
2021/01/18 02:08:58;;;;;;;5.32;2.30;;;;;;;;;;5065431;28;20605;-48
2021/01/18 02:11:24;;;;;;;5.72;2.80;;;;;;;;;;5064946;28;20036;-48
2021/01/18 02:13:56;;;;;;;4.82;2.97;;;;;;;;;;5064953;28;20021;-51
2021/01/18 02:16:30;;;;;;;5.75;2.50;;;;;;;;;;5064999;28;20099;-50
2021/01/18 02:18:56;;;;;;;7.15;3.25;;;;;;;;;;5064693;28;20028;-50
2021/01/18 02:21:37;;;;;;;5.43;2.50;;;;;;;;;;5064721;28;20813;-48
2021/01/18 02:24:20;;;;;;;5.57;2.90;;;;;;;;;;5065414;28;20056;-52
2021/01/18 02:26:47;;;;;;;6.03;2.70;;;;;;;;;;5064734;28;20417;-48
2021/01/18 02:29:38;;;;;;;6.20;2.35;;;;;;;;;;5064943;28;20439;-49
2021/01/18 02:32:16;;;;;;;7.65;2.83;;;;;;;;;;5064639;28;20027;-50
2021/01/18 02:35:01;;;;;;;4.38;2.42;;;;;;;;;;5064169;28;20095;-48
2021/01/18 02:37:27;;;;;;;;;;;;;;;;;;5065246;28;20060;-49
2021/01/18 02:40:11;;;;;;;8.55;2.60;;;;;;;;;;5064517;28;19940;-49
2021/01/18 02:42:58;;;;;;;4.40;2.28;;;;;;;;;;5064584;28;20307;-48
2021/01/18 02:45:26;;;;;;;5.95;2.78;;;;;;;;;;5064915;28;20035;-49
2021/01/18 02:47:54;;;;;;;3.78;2.42;;;;;;;;;;5064295;28;20039;-50
2021/01/18 02:50:21;;;;;;;6.43;2.92;;;;;;;;;;5064635;28;20027;-49
2021/01/18 02:52:47;;;;;;;3.92;2.50;;;;;;;;;;5064480;28;20121;-50
2021/01/18 02:55:18;;;;;;;5.25;2.78;;;;;;;;;;5064683;28;20490;-52
2021/01/18 02:57:47;;;;;;;6.20;2.80;;;;;;;;;;5064440;28;20021;-49
2021/01/18 03:00:19;;;;;;;3.92;2.20;;;;;;;;;;5064518;28;20029;-50
2021/01/18 03:02:47;;;;;;;3.13;2.00;;;;;;;;;;5064206;28;20024;-49
2021/01/18 03:05:19;;;;;;;7.50;2.65;;;;;;;;;;5064547;28;20036;-49
2021/01/18 03:08:00;;;;;;;4.32;2.65;;;;;;;;;;5065473;28;20455;-48
2021/01/18 03:10:43;;;;;;;4.18;2.42;;;;;;;;;;5068398;28;20093;-49
2021/01/18 03:13:29;;;;;;;5.18;2.30;;;;;;;;;;5068544;28;20036;-48
2021/01/18 03:15:58;;;;;;;5.00;2.80;;;;;;;;;;5068341;28;20021;-49
2021/01/18 03:18:24;;;;;;;4.00;2.53;;;;;;;;;;5068290;28;20386;-48
2021/01/18 03:20:51;;;;;;;5.28;2.80;;;;;;;;;;5068212;28;20025;-49
2021/01/18 03:23:17;;;;;;;5.53;2.67;;;;;;;;;;5068408;28;20104;-49
2021/01/18 03:25:46;;;;;;;6.88;3.17;;;;;;;;;;5068187;28;20056;-49
2021/01/18 03:28:12;;;;;;;5.68;2.63;;;;;;;;;;5068229;28;20032;-48
2021/01/18 03:30:38;;;;;;;4.18;2.08;;;;;;;;;;5067608;28;20044;-48
2021/01/18 03:33:04;;;;;;;5.25;2.33;;;;;;;;;;5068094;28;20095;-50
2021/01/18 03:35:32;;;;;;;7.90;2.88;;;;;;;;;;5068385;28;20052;-49
2021/01/18 03:37:58;;;;;;;4.55;2.20;;;;;;;;;;5067937;28;20543;-49
2021/01/18 03:40:26;;;;;;;4.38;2.33;;;;;;;;;;5067527;28;20387;-50
2021/01/18 03:42:54;;;;;;;3.72;2.15;;;;;;;;;;5067645;28;20028;-50
2021/01/18 03:45:21;;;;;;;6.72;2.33;;;;;;;;;;5067679;28;20044;-48
2021/01/18 03:47:48;;;;;;;4.53;2.30;;;;;;;;;;5067325;28;20055;-48
2021/01/18 03:50:14;;;;;;;4.97;2.20;;;;;;;;;;5067794;28;20487;-49
2021/01/18 03:52:40;;;;;;;4.72;2.28;;;;;;;;;;5067381;28;20405;-50
2021/01/18 03:55:06;;;;;;;4.20;2.47;;;;;;;;;;5067794;28;20031;-49
2021/01/18 03:57:32;;;;;;;5.95;2.85;;;;;;;;;;5068245;28;20044;-51
2021/01/18 03:59:59;;;;;;;3.22;2.40;;;;;;;;;;5067981;28;20502;-49
2021/01/18 04:02:26;;;;;;;7.13;2.67;;;;;;;;;;5067464;28;20078;-49
2021/01/18 04:04:52;;;;;;;5.25;2.35;;;;;;;;;;5067247;28;20426;-49
2021/01/18 04:07:18;;;;;;;6.55;2.47;;;;;;;;;;5067368;28;20035;-50
2021/01/18 04:09:45;;;;;;;4.18;2.50;;;;;;;;;;5066988;28;20036;-49
2021/01/18 04:12:11;;;;;;;4.20;2.15;;;;;;;;;;5067407;28;20101;-50
2021/01/18 04:14:37;;;;;;;4.00;2.25;;;;;;;;;;5066995;28;20032;-50
2021/01/18 04:17:03;;;;;;;5.43;2.72;;;;;;;;;;5067581;28;20502;-50
2021/01/18 04:19:29;;;;;;;6.90;3.00;;;;;;;;;;5067659;28;20089;-49
2021/01/18 04:21:55;;;;;;;6.18;2.95;;;;;;;;;;5067000;28;20441;-48
2021/01/18 04:24:22;;;;;;;6.80;2.70;;;;;;;;;;5067583;28;20033;-49
2021/01/18 04:26:48;;;;;;;6.95;3.10;;;;;;;;;;5066411;28;20516;-50
2021/01/18 04:29:15;;;;;;;5.88;2.80;;;;;;;;;;5068336;28;20024;-48
2021/01/18 04:31:41;;;;;;;5.10;2.58;;;;;;;;;;5067645;28;20074;-49
2021/01/18 04:34:08;;;;;;;6.78;3.80;;;;;;;;;;5054718;28;20558;-51
2021/01/18 04:36:36;;;;;;;6.05;3.42;;;;;;;;;;5047318;28;20420;-52
2021/01/18 04:39:03;;;;;;;8.25;3.88;;;;;;;;;;5048570;28;20029;-50
2021/01/18 04:41:29;;;;;;;6.97;3.28;;;;;;;;;;5048078;28;20024;-50
2021/01/18 04:43:56;;;;;;;4.43;2.97;;;;;;;;;;5047557;28;20044;-50
2021/01/18 04:46:23;;;;;;;6.40;3.90;;;;;;;;;;5061848;28;20051;-48
2021/01/18 04:48:49;;;;;;;7.00;3.55;;;;;;;;;;5067850;28;20025;-49
2021/01/18 04:51:16;;;;;;;8.00;3.90;;;;;;;;;;5068398;28;20028;-50
2021/01/18 04:53:48;;;;;;;10.90;3.35;;;;;;;;;;5068051;28;20036;-49
2021/01/18 04:56:32;;;;;;;7.70;3.53;;;;;;;;;;5066129;28;20623;-49
2021/01/18 04:59:00;;;;;;;6.85;3.60;;;;;;;;;;5062461;28;20397;-51
2021/01/18 05:01:30;;;;;;;6.90;3.20;;;;;;;;;;5066018;28;20072;-51
2021/01/18 05:04:02;;;;;;;5.13;3.28;;;;;;;;;;5066265;28;20039;-48
2021/01/18 05:06:34;;;;;;;8.00;4.43;;;;;;;;;;5067799;28;20024;-49
2021/01/18 05:09:06;;;;;;;7.43;4.32;;;;;;;;;;5068384;28;20029;-49
2021/01/18 05:11:33;;;;;;;9.85;4.95;;;;;;;;;;5067401;28;20402;-50
2021/01/18 05:14:03;;;;;;;8.85;5.15;;;;;;;;;;5067782;28;20025;-48
2021/01/18 05:16:33;;;;;;;8.25;4.75;;;;;;;;;;5067844;28;20021;-48
2021/01/18 05:19:00;;;;;;;8.50;4.53;;;;;;;;;;5068215;28;20024;-48
2021/01/18 05:21:26;;;;;;;7.40;4.18;;;;;;;;;;5067193;28;20029;-50
2021/01/18 05:23:53;;;;;;;9.93;4.45;;;;;;;;;;5067073;28;20055;-49
2021/01/18 05:26:21;;;;;;;8.93;4.72;;;;;;;;;;5067213;28;20060;-51
2021/01/18 05:28:51;;;;;;;8.90;5.00;;;;;;;;;;5066992;28;20706;-50
2021/01/18 05:31:27;;;;;;;9.38;5.57;;;;;;;;;;5066494;28;20036;-47
2021/01/18 05:33:55;;;;;;;8.57;5.25;;;;;;;;;;5067018;28;20445;-48
2021/01/18 05:36:38;;;;;;;11.30;5.88;;;;;;;;;;5066833;28;20023;-49
2021/01/18 05:39:15;;;;;;;11.30;5.65;;;;;;;;;;5066892;28;20143;-48
2021/01/18 05:41:41;;;;;;;9.63;5.57;;;;;;;;;;5048282;28;20105;-50
2021/01/18 05:44:08;;;;;;;8.25;5.18;;;;;;;;;;5066886;28;20047;-49
2021/01/18 05:46:35;;;;;;;8.13;4.53;;;;;;;;;;5065154;28;20546;-50
2021/01/18 05:49:10;;;;;;;10.70;6.15;;;;;;;;;;5066030;28;20024;-49
2021/01/18 05:51:37;;;;;;;11.70;7.63;;;;;;;;;;5064776;28;20033;-49
2021/01/18 05:54:03;;;;;;;14.25;7.82;;;;;;;;;;5065929;28;20425;-50
2021/01/18 05:56:46;;;;;;;12.38;7.28;;;;;;;;;;5065707;28;20038;-49
2021/01/18 05:59:20;;;;;;;11.43;6.95;;;;;;;;;;5065228;28;20021;-48
2021/01/18 06:01:47;;;;;;;12.25;6.32;;;;;;;;;;5064915;28;20090;-50
2021/01/18 06:04:17;;;;;;;8.15;4.82;;;;;;;;;;5064727;28;20132;-49
2021/01/18 06:06:45;;;;;;;8.02;4.72;;;;;;;;;;5064787;28;20032;-49
2021/01/18 06:09:11;;;;;;;9.23;5.22;;;;;;;;;;5065161;28;20028;-48
2021/01/18 06:11:38;;;;;;;11.15;5.25;;;;;;;;;;5064331;28;20577;-49
2021/01/18 06:14:05;;;;;;;9.15;4.80;;;;;;;;;;5064971;28;20028;-48
2021/01/18 06:16:32;;;;;;;13.18;5.50;;;;;;;;;;5065354;28;20066;-50
2021/01/18 06:19:08;;;;;;;12.77;6.35;;;;;;;;;;5065196;28;20111;-50
2021/01/18 06:21:35;;;;;;;10.40;5.93;;;;;;;;;;5064515;28;20490;-48
2021/01/18 06:24:16;;;;;;;12.20;6.68;;;;;;;;;;5065545;28;20031;-48
2021/01/18 06:26:42;;;;;;;10.35;6.18;;;;;;;;;;5064498;28;20028;-48
2021/01/18 06:29:08;;;;;;;13.23;7.32;;;;;;;;;;5064309;28;20071;-49
2021/01/18 06:31:45;;;;;;;14.05;7.65;;;;;;;;;;5064083;28;20530;-52
2021/01/18 06:34:11;;;;;;;10.73;6.20;;;;;;;;;;5064756;28;20104;-49
2021/01/18 06:36:37;;;;;;;12.27;6.45;;;;;;;;;;5064510;28;20028;-48
2021/01/18 06:39:07;;;;;;;10.43;5.85;;;;;;;;;;5065030;28;20633;-48
2021/01/18 06:41:34;;;;;;;10.00;6.07;;;;;;;;;;5064230;28;20037;-52
2021/01/18 06:44:02;;;;;;;11.45;6.53;;;;;;;;;;5064507;28;20025;-48
2021/01/18 06:46:33;;;;;;;10.75;6.78;;;;;;;;;;5065150;28;20037;-48
2021/01/18 06:49:00;;;;;;;11.18;6.30;;;;;;;;;;5065112;28;20506;-48
2021/01/18 06:51:28;;;;;;;9.55;5.65;;;;;;;;;;5064375;28;20448;-50
2021/01/18 06:53:54;;;;;;;11.60;6.85;;;;;;;;;;5063722;28;20028;-49
2021/01/18 06:56:25;;;;;;;11.43;5.88;;;;;;;;;;5064460;28;20024;-49
2021/01/18 06:58:54;;;;;;;9.75;5.82;;;;;;;;;;5063502;28;20103;-49
2021/01/18 07:01:30;;;;;;;13.30;7.97;;;;;;;;;;5064382;28;20035;-49
2021/01/18 07:04:18;;;;;;;13.48;6.60;;;;;;;;;;5063941;28;20081;-50
2021/01/18 07:06:57;;;;;;;12.40;6.93;;;;;;;;;;5063669;28;20128;-48
2021/01/18 07:09:26;;;;;;;14.30;7.50;;;;;;;;;;5046379;28;20029;-51
2021/01/18 07:12:02;;;;;;;15.30;8.13;;;;;;;;;;5064124;28;20028;-49
2021/01/18 07:14:30;;;;;;;14.48;7.15;;;;;;;;;;5064520;28;20029;-47
2021/01/18 07:17:03;;;;;;;16.40;7.47;;;;;;;;;;5064050;28;20024;-51
2021/01/18 07:19:35;;;;;;;11.45;6.45;;;;;;;;;;5064915;28;20435;-51
2021/01/18 07:22:23;;;;;;;15.52;7.72;;;;;;;;;;5064813;28;20226;-50
2021/01/18 07:24:53;;;;;;;13.02;7.05;;;;;;;;;;5064030;28;20031;-49
2021/01/18 07:27:24;;;;;;;10.95;6.20;;;;;;;;;;5064551;28;20589;-51
2021/01/18 07:29:50;;;;;;;12.43;6.63;;;;;;;;;;5063767;28;20053;-49
2021/01/18 07:32:17;;;;;;;13.48;6.07;;;;;;;;;;5064473;28;20029;-49
2021/01/18 07:34:44;;;;;;;12.95;6.88;;;;;;;;;;5064011;28;20032;-49
2021/01/18 07:37:11;;;;;;;13.23;7.25;;;;;;;;;;5064708;28;20035;-49
2021/01/18 07:39:39;;;;;;;13.23;7.35;;;;;;;;;;5065094;28;20426;-48
2021/01/18 07:42:06;;;;;;;18.13;8.75;;;;;;;;;;5065874;28;20383;-49
2021/01/18 07:44:32;;;;;;;15.40;7.60;;;;;;;;;;5065950;28;20020;-51
2021/01/18 07:47:02;;;;;;;12.43;6.85;;;;;;;;;;5064333;28;20048;-51
2021/01/18 07:49:32;;;;;;;14.25;7.25;;;;;;;;;;5065470;28;20082;-50
2021/01/18 07:52:17;;;;;;;14.05;7.70;;;;;;;;;;5061945;28;20071;-48
2021/01/18 07:54:44;;;;;;;18.52;9.45;;;;;;;;;;5067876;28;20028;-48
2021/01/18 07:57:29;;;;;;;22.35;11.05;;;;;;;;;;5068915;28;20032;-50
2021/01/18 08:00:13;;;;;;;18.25;10.30;;;;;;;;;;5068343;28;20082;-50
2021/01/18 08:02:40;;;;;;;18.20;9.70;;;;;;;;;;5067692;28;20031;-48
2021/01/18 08:05:21;;;;;;;16.90;9.05;;;;;;;;;;5068533;28;20028;-49
2021/01/18 08:08:06;;;;;;;17.60;9.18;;;;;;;;;;5068734;28;20056;-51
2021/01/18 08:10:49;;;;;;;18.58;9.20;;;;;;;;;;5068356;28;20025;-52
2021/01/18 08:13:35;;;;;;;18.02;9.98;;;;;;;;;;5068442;28;20017;-49
2021/01/18 08:16:10;;;;;;;16.90;8.27;;;;;;;;;;5069298;28;20024;-51
2021/01/18 08:18:36;;;;;;;13.60;7.40;;;;;;;;;;5048827;28;20036;-48
2021/01/18 08:21:22;;;;;;;16.98;8.48;;;;;;;;;;5031127;28;20094;-49
2021/01/18 08:23:48;;;;;;;16.10;7.95;;;;;;;;;;5048248;28;20071;-49
2021/01/18 08:26:15;;;;;;;17.15;9.52;;;;;;;;;;5048369;28;20108;-49
2021/01/18 08:28:48;;;;;;;16.35;9.05;;;;;;;;;;5049977;28;20517;-48
2021/01/18 08:31:15;;;;;;;15.38;8.50;;;;;;;;;;5068234;28;20021;-49
2021/01/18 08:33:41;;;;;;;17.58;8.95;;;;;;;;;;5067885;28;20048;-51
2021/01/18 08:36:07;;;;;;;16.48;8.95;;;;;;;;;;5067597;28;20036;-48
2021/01/18 08:38:33;;;;;;;15.60;8.32;;;;;;;;;;5068369;28;20411;-50
2021/01/18 08:41:04;;;;;;;14.02;7.78;;;;;;;;;;5067088;28;20024;-48
2021/01/18 08:43:46;;;;;;;13.35;7.50;;;;;;;;;;5065256;28;20033;-49
2021/01/18 08:46:31;;;;;;;16.00;8.57;;;;;;;;;;5067046;28;20021;-48
2021/01/18 08:49:17;;;;;;;15.45;7.93;;;;;;;;;;5065063;28;20056;-48
2021/01/18 08:51:49;;;;;;;14.75;7.43;;;;;;;;;;5066204;28;20039;-48
2021/01/18 08:54:29;;;;;;;15.18;6.43;;;;;;;;;;5066479;28;20024;-48
2021/01/18 08:57:14;;;;;;;17.48;7.93;;;;;;;;;;5065354;28;20372;-49
2021/01/18 08:59:41;;;;;;;14.23;7.03;;;;;;;;;;5045462;28;20025;-48
2021/01/18 09:02:08;;;;;;;17.95;7.72;;;;;;;;;;5046097;28;20056;-48
2021/01/18 09:04:34;;;;;;;14.13;7.05;;;;;;;;;;5059778;28;20036;-52
2021/01/18 09:07:06;;;;;;;15.85;8.20;;;;;;;;;;5066297;28;20104;-48
2021/01/18 09:09:32;;;;;;;14.18;6.97;;;;;;;;;;5065523;28;20029;-49
2021/01/18 09:12:05;;;;;;;11.55;6.28;;;;;;;;;;5066373;28;20115;-50
2021/01/18 09:14:32;;;;;;;13.55;6.78;;;;;;;;;;5065512;28;20070;-49
2021/01/18 09:17:07;;;;;;;14.75;7.45;;;;;;;;;;5066196;28;20120;-50
2021/01/18 09:19:33;;;;;;;12.25;6.10;;;;;;;;;;5066178;28;20028;-51
2021/01/18 09:22:00;;;;;;;9.13;4.85;;;;;;;;;;5065498;28;20024;-50
2021/01/18 09:24:27;;;;;;;12.32;6.15;;;;;;;;;;5064766;28;20033;-50
2021/01/18 09:26:53;;;;;;;11.80;5.97;;;;;;;;;;5065837;28;20546;-52
2021/01/18 09:29:22;;;;;;;12.68;6.35;;;;;;;;;;5065469;28;20024;-51
2021/01/18 09:31:49;;;;;;;14.45;7.45;;;;;;;;;;5065191;28;20033;-53
2021/01/18 09:34:15;;;;;;;10.75;6.32;;;;;;;;;;5064912;28;20036;-51
2021/01/18 09:36:43;;;;;;;11.40;6.03;;;;;;;;;;5065245;28;20095;-50
2021/01/18 09:39:19;;;;;;;9.93;5.10;;;;;;;;;;5064670;28;20032;-51
2021/01/18 09:41:45;;;;;;;11.00;5.53;;;;;;;;;;5065310;28;20034;-50
2021/01/18 09:44:11;;;;;;;10.65;6.10;;;;;;;;;;5065450;28;20119;-52
2021/01/18 09:46:38;;;;;;;12.50;6.10;;;;;;;;;;5064628;28;20104;-50
2021/01/18 09:49:04;;;;;;;10.35;5.53;;;;;;;;;;5064438;28;20040;-50
2021/01/18 09:51:31;;;;;;;9.73;5.43;;;;;;;;;;5065623;28;20512;-51
2021/01/18 09:53:57;;;;;;;8.18;4.50;;;;;;;;;;5065255;28;20033;-49
2021/01/18 09:56:23;;;;;;;7.93;4.75;;;;;;;;;;5065486;28;20399;-49
2021/01/18 09:58:55;;;;;;;9.80;5.63;;;;;;;;;;5062313;28;20553;-49
2021/01/18 10:01:24;;;;;;;12.63;7.38;;;;;;;;;;5064978;28;20029;-50
2021/01/18 10:03:53;;;;;;;13.57;7.63;;;;;;;;;;5063903;28;20060;-49
2021/01/18 10:06:26;;;;;;;12.95;7.28;;;;;;;;;;5064866;28;20029;-50
2021/01/18 10:08:54;;;;;;;12.02;6.63;;;;;;;;;;5062978;28;20047;-50
2021/01/18 10:11:33;;;;;;;11.35;6.65;;;;;;;;;;5065037;28;20081;-50
2021/01/18 10:14:02;;;;;;;10.88;6.35;;;;;;;;;;5064406;28;20047;-50
2021/01/18 10:16:29;;;;;;;11.55;6.53;;;;;;;;;;5063942;28;20441;-51
2021/01/18 10:18:55;;;;;;;9.70;5.82;;;;;;;;;;5064473;28;20028;-50
2021/01/18 10:21:32;;;;;;;9.90;5.30;;;;;;;;;;5064592;28;20406;-52
2021/01/18 10:23:58;;;;;;;7.68;4.43;;;;;;;;;;5062546;28;20047;-49
2021/01/18 10:26:35;;;;;;;10.68;5.13;;;;;;;;;;5051643;28;20108;-48
2021/01/18 10:29:02;;;;;;;9.23;5.13;;;;;;;;;;5053757;28;20513;-48
2021/01/18 10:31:32;;;;;;;8.07;4.78;;;;;;;;;;5044556;28;20048;-49
2021/01/18 10:34:18;;;;;;;8.98;4.97;;;;;;;;;;5044325;28;20029;-49
2021/01/18 10:36:47;;;;;;;8.15;4.47;;;;;;;;;;5043908;28;20070;-47
2021/01/18 10:39:30;;;;;;;11.63;5.07;;;;;;;;;;5055318;28;20076;-48
2021/01/18 10:42:04;;;;;;;8.55;5.05;;;;;;;;;;5061592;28;20027;-48
2021/01/18 10:44:31;;;;;;;9.95;5.10;;;;;;;;;;5063988;28;20040;-49
2021/01/18 10:46:57;;;;;;;10.88;5.63;;;;;;;;;;5062933;28;20032;-47
2021/01/18 10:49:24;;;;;;;7.97;4.53;;;;;;;;;;5063950;28;20165;-49
2021/01/18 10:52:00;;;;;;;7.95;4.57;;;;;;;;;;5063343;28;20090;-49
2021/01/18 10:54:26;;;;;;;7.90;4.47;;;;;;;;;;5063200;28;20568;-49
2021/01/18 10:56:54;;;;;;;9.75;5.60;;;;;;;;;;5062646;28;20156;-48
2021/01/18 10:59:21;;;;;;;7.72;5.03;;;;;;;;;;5063240;28;20028;-48
2021/01/18 11:02:04;;;;;;;6.63;3.92;;;;;;;;;;5063653;28;20031;-48
2021/01/18 11:04:34;;;;;;;8.52;4.43;;;;;;;;;;5064666;28;20024;-48
2021/01/18 11:07:00;;;;;;;8.82;4.60;;;;;;;;;;5063381;28;20402;-51
2021/01/18 11:09:27;;;;;;;12.00;5.72;;;;;;;;;;5062553;28;20037;-49
2021/01/18 11:11:53;;;;;;;8.90;4.57;;;;;;;;;;5063187;28;20070;-48
2021/01/18 11:14:20;;;;;;;8.38;4.57;;;;;;;;;;5063660;28;20056;-48
2021/01/18 11:17:15;;;;;;;6.93;4.07;;;;;;;;;;5063560;28;20021;-48
2021/01/18 11:19:41;;;;;;;9.40;4.63;;;;;;;;;;5045724;28;20032;-48
2021/01/18 11:22:07;;;;;;;11.52;6.28;;;;;;;;;;5043462;28;20031;-48
2021/01/18 11:24:33;;;;;;;9.27;5.22;;;;;;;;;;5050239;28;20032;-51
2021/01/18 11:27:00;;;;;;;9.82;5.38;;;;;;;;;;5063992;28;20248;-49
2021/01/18 11:29:29;;;;;;;10.95;5.65;;;;;;;;;;5066133;28;20036;-49
2021/01/18 11:31:55;;;;;;;10.43;4.95;;;;;;;;;;5066918;28;20318;-50
2021/01/18 11:34:21;;;;;;;8.95;4.80;;;;;;;;;;5066328;28;20038;-49
2021/01/18 11:36:47;;;;;;;8.15;4.50;;;;;;;;;;5067188;28;20086;-50
2021/01/18 11:39:14;;;;;;;9.35;4.22;;;;;;;;;;5067263;28;20039;-49
2021/01/18 11:41:40;;;;;;;9.90;5.47;;;;;;;;;;5066429;28;20021;-48
2021/01/18 11:44:07;;;;;;;11.70;6.75;;;;;;;;;;5065629;28;20024;-49
2021/01/18 11:46:33;;;;;;;9.93;5.57;;;;;;;;;;5067367;28;20021;-48
2021/01/18 11:48:59;;;;;;;10.63;5.20;;;;;;;;;;5065921;28;20028;-52
2021/01/18 11:51:26;;;;;;;10.40;5.75;;;;;;;;;;5067021;28;20030;-47
2021/01/18 11:53:53;;;;;;;10.15;5.60;;;;;;;;;;5065872;28;20051;-54
2021/01/18 11:56:28;;;;;;;8.82;5.07;;;;;;;;;;5065825;28;20206;-53
2021/01/18 11:58:54;;;;;;;7.47;4.07;;;;;;;;;;5066416;28;20378;-53
2021/01/18 12:01:20;;;;;;;9.35;5.00;;;;;;;;;;5064984;28;20036;-52
2021/01/18 12:03:46;;;;;;;10.38;5.80;;;;;;;;;;5064186;28;20032;-51
2021/01/18 12:06:12;;;;;;;11.63;5.57;;;;;;;;;;5066743;28;20526;-52
2021/01/18 12:08:38;;;;;;;8.63;4.70;;;;;;;;;;5066298;28;20031;-52
2021/01/18 12:11:04;;;;;;;9.48;5.40;;;;;;;;;;5057194;28;20557;-50
2021/01/18 12:13:31;;;;;;;12.65;5.47;;;;;;;;;;5066305;28;20078;-51
2021/01/18 12:15:58;;;;;;;10.27;5.55;;;;;;;;;;5065504;28;20078;-50
2021/01/18 12:18:25;;;;;;;11.73;5.43;;;;;;;;;;5066754;28;20090;-54
2021/01/18 12:20:51;;;;;;;8.82;4.70;;;;;;;;;;5065569;28;20036;-56
2021/01/18 12:23:18;;;;;;;10.18;4.90;;;;;;;;;;5064594;28;20029;-56
2021/01/18 12:25:45;;;;;;;9.52;4.82;;;;;;;;;;5066283;28;20021;-56
2021/01/18 12:28:11;;;;;;;10.85;5.13;;;;;;;;;;5066413;28;20070;-51
2021/01/18 12:30:38;;;;;;;11.98;5.80;;;;;;;;;;5064999;28;20060;-46
2021/01/18 12:33:04;;;;;;;12.73;8.73;;;;;;;;;;5065905;28;20024;-54
2021/01/18 12:35:30;;;;;;;9.38;5.93;;;;;;;;;;5065881;28;20384;-54
2021/01/18 12:37:56;;;;;;;8.27;4.43;;;;;;;;;;5065621;28;20063;-54
2021/01/18 12:40:22;;;;;;;8.48;4.63;;;;;;;;;;5063183;28;20038;-53
2021/01/18 12:42:48;;;;;;;9.30;4.95;;;;;;;;;;5065161;28;20028;-54
2021/01/18 12:45:15;;;;;;;8.25;4.75;;;;;;;;;;5066217;28;20477;-57
2021/01/18 12:47:42;;;;;;;9.52;4.82;;;;;;;;;;5061766;28;20021;-57
2021/01/18 12:50:09;;;;;;;9.13;4.95;;;;;;;;;;5059999;28;20029;-57
2021/01/18 12:52:39;;;;;;;8.13;4.68;;;;;;;;;;5065363;28;20027;-55
2021/01/18 12:55:05;;;;;;;12.57;5.07;;;;;;;;;;5065704;28;20036;-56
2021/01/18 12:57:32;;;;;;;9.88;5.50;;;;;;;;;;5066340;28;20460;-56
2021/01/18 12:59:58;;;;;;;9.45;5.53;;;;;;;;;;5065063;28;20067;-56
2021/01/18 13:02:24;;;;;;;8.23;4.75;;;;;;;;;;5065549;28;20056;-54
2021/01/18 13:04:52;;;;;;;9.07;4.78;;;;;;;;;;5065099;28;20405;-56
2021/01/18 13:07:18;;;;;;;8.75;4.88;;;;;;;;;;5064606;28;20027;-54
2021/01/18 13:09:45;;;;;;;10.05;5.38;;;;;;;;;;5065049;28;20028;-55
2021/01/18 13:12:11;;;;;;;8.65;4.65;;;;;;;;;;5064360;28;20037;-55
2021/01/18 13:14:37;;;;;;;12.98;6.45;;;;;;;;;;5065173;28;20028;-55
2021/01/18 13:17:04;;;;;;;13.45;6.28;;;;;;;;;;5065641;28;20029;-55
2021/01/18 13:19:30;;;;;;;11.43;6.25;;;;;;;;;;5064906;28;20028;-55
2021/01/18 13:21:58;;;;;;;9.95;4.97;;;;;;;;;;5065102;28;20600;-55
2021/01/18 13:24:25;;;;;;;9.68;5.20;;;;;;;;;;5065215;28;20029;-56
2021/01/18 13:26:51;;;;;;;16.00;5.82;;;;;;;;;;5064866;28;20063;-56
2021/01/18 13:29:17;;;;;;;12.43;6.25;;;;;;;;;;5064343;28;20104;-56
2021/01/18 13:31:44;;;;;;;11.20;5.22;;;;;;;;;;5065026;28;20157;-57
2021/01/18 13:34:11;;;;;;;13.27;7.07;;;;;;;;;;5065206;28;20036;-56
2021/01/18 13:36:37;;;;;;;14.55;7.20;;;;;;;;;;5064720;28;20032;-56
2021/01/18 13:39:04;;;;;;;18.15;7.45;;;;;;;;;;5062988;28;20412;-56
2021/01/18 13:41:30;;;;;;;13.32;6.55;;;;;;;;;;5064464;28;20024;-56
2021/01/18 13:43:56;;;;;;;14.30;7.18;;;;;;;;;;5065113;28;20137;-55
2021/01/18 13:46:24;;;;;;;11.15;6.28;;;;;;;;;;5064166;28;20055;-56
2021/01/18 13:48:52;;;;;;;11.55;6.15;;;;;;;;;;5064415;28;20414;-56
2021/01/18 13:51:22;;;;;;;13.05;6.28;;;;;;;;;;5064286;28;20103;-56
2021/01/18 13:53:49;;;;;;;13.68;6.45;;;;;;;;;;5064140;28;20457;-56
2021/01/18 13:56:17;;;;;;;13.50;6.30;;;;;;;;;;5062468;28;20478;-55
2021/01/18 13:58:43;;;;;;;13.13;6.35;;;;;;;;;;5064030;28;20019;-56
2021/01/18 14:01:11;;;;;;;10.50;5.57;;;;;;;;;;5064329;28;20033;-56
2021/01/18 14:03:36;;;;;;;13.63;5.85;;;;;;;;;;5064224;28;20028;-56
2021/01/18 14:06:04;;;;;;;13.77;6.38;;;;;;;;;;5064362;28;20111;-56
2021/01/18 14:08:31;;;;;;;11.65;6.30;;;;;;;;;;5064821;28;20032;-56
2021/01/18 14:10:57;;;;;;;10.32;5.30;;;;;;;;;;5062317;28;20051;-56
2021/01/18 14:13:23;;;;;;;8.27;4.90;;;;;;;;;;5065321;28;20471;-56
2021/01/18 14:15:52;;;;;;;9.90;5.68;;;;;;;;;;5063184;28;20032;-56
2021/01/18 14:18:18;;;;;;;8.32;4.40;;;;;;;;;;5064644;28;20028;-56
2021/01/18 14:20:44;;;;;;;9.73;5.05;;;;;;;;;;5055994;28;20107;-56
2021/01/18 14:23:10;;;;;;;10.18;5.03;;;;;;;;;;5043397;28;20112;-56
2021/01/18 14:25:37;;;;;;;12.30;6.13;;;;;;;;;;5025851;28;20104;-56
2021/01/18 14:28:04;;;;;;;10.98;5.55;;;;;;;;;;5044106;28;20029;-50
2021/01/18 14:30:30;;;;;;;13.60;5.72;;;;;;;;;;5055590;28;20059;-49
2021/01/18 14:32:56;;;;;;;10.20;5.55;;;;;;;;;;5063101;28;20099;-48
2021/01/18 14:35:22;;;;;;;10.65;5.38;;;;;;;;;;5064173;28;20103;-48
2021/01/18 14:37:48;;;;;;;12.30;5.88;;;;;;;;;;5064058;28;20113;-50
2021/01/18 14:40:14;;;;;;;12.10;6.05;;;;;;;;;;5062844;28;20413;-47
2021/01/18 14:42:41;;;;;;;9.88;4.90;;;;;;;;;;5063560;28;20033;-50
2021/01/18 14:45:08;;;;;;;9.63;5.40;;;;;;;;;;5064020;28;20046;-50
2021/01/18 14:47:39;;;;;;;11.25;5.65;;;;;;;;;;5061941;28;20071;-49
2021/01/18 14:50:05;;;;;;;13.45;6.22;;;;;;;;;;5063919;28;20021;-47